Terminal Aerodrome Forecast
Issued by NWS St Louis, MO

Home | Current Version | Previous Version | Text Only | Print | Product List | Glossary On
Versions: 1 2 3 4 5 6 7 8 9 10 11 12 13 14 15 16 17 18 19 20 21 22 23 24 25
000
FTUS43 KLSX 171700
TAFSTL
TAF
KSTL 171720Z 1718/1824 13007KT P6SM SCT020 OVC040
      TEMPO 1718/1721 -RA OVC020
     FM180300 10004KT 6SM BR BKN040
     FM180900 09005KT 4SM BR SCT040
     FM181400 09007KT P6SM SCT040=

USA.gov is the U.S. government's official web portal to all federal, state and local government web resources and services.